Time;durP1;ratioP1;P1;durP2;ratioP2;P2;SDS_P1;SDS_P2;PMS_P1;PMS_P2;Temp;Humidity;BMP_temperature;BMP_pressure;BME280_temperature;BME280_humidity;BME280_pressure;Samples;Min_cycle;Max_cycle;Signal;HPM_P1;HPM_P2
2021/09/22 00:09:44;;;;;;;11.25;6.22;;;;;;;10.83;86.45;101249.17;20781876;83;107644;-82
2021/09/22 00:39:45;;;;;;;13.33;6.03;;;;;;;10.94;86.49;101227.38;20640498;83;99826;-83
2021/09/22 01:09:46;;;;;;;15.17;7.10;;;;;;;11.07;86.50;101198.56;20158819;85;99701;-83
2021/09/22 01:39:46;;;;;;;15.13;6.90;;;;;;;11.06;86.67;101208.77;20232582;83;99728;-82
2021/09/22 02:09:47;;;;;;;14.35;7.70;;;;;;;11.03;87.35;101194.35;20506871;83;99792;-82
2021/09/22 02:39:49;;;;;;;13.98;8.08;;;;;;;11.11;87.47;101164.41;20793631;82;99554;-83
2021/09/22 03:09:50;;;;;;;19.85;8.88;;;;;;;11.05;87.92;101164.48;20817673;82;99521;-83
2021/09/22 03:39:51;;;;;;;13.78;7.00;;;;;;;11.06;88.06;101188.70;20798966;82;99542;-83
2021/09/22 04:09:52;;;;;;;19.95;10.55;;;;;;;11.05;88.26;101212.69;20703803;83;99525;-83
2021/09/22 04:39:53;;;;;;;22.50;10.68;;;;;;;10.94;88.53;101233.69;20712665;83;99629;-83
2021/09/22 05:09:55;;;;;;;18.45;9.38;;;;;;;10.99;88.77;101244.43;20600935;83;100147;-83
2021/09/22 05:39:56;;;;;;;19.13;9.63;;;;;;;10.90;88.85;101254.84;20554542;83;99994;-84
2021/09/22 06:09:58;;;;;;;;;;;;;;;10.80;88.96;101299.45;20511082;84;99608;-83
2021/09/22 06:39:59;;;;;;;15.70;7.90;;;;;;;10.86;89.68;101326.92;20290251;84;85496;-86
2021/09/22 07:10:00;;;;;;;13.90;8.20;;;;;;;11.29;89.89;101354.91;19816066;86;99498;-85
2021/09/22 07:40:02;;;;;;;14.70;7.83;;;;;;;11.54;90.08;101384.63;19893249;84;99479;-85
2021/09/22 08:10:06;;;;;;;15.43;8.50;;;;;;;11.81;88.82;101422.86;20418888;84;99394;-85
2021/09/22 08:40:09;;;;;;;23.47;13.90;;;;;;;12.08;87.80;101448.89;20388890;84;100153;-84
2021/09/22 09:10:10;;;;;;;18.60;11.13;;;;;;;12.42;88.18;101458.28;20395980;85;99928;-84
2021/09/22 09:40:36;;;;;;;18.27;11.73;;;;;;;13.70;88.16;101452.06;20224934;85;99645;-84
2021/09/22 10:10:38;;;;;;;15.00;8.27;;;;;;;15.21;85.80;101452.47;20044455;86;99900;-84
2021/09/22 10:40:49;;;;;;;11.03;6.37;;;;;;;17.30;79.33;101440.70;20026300;85;99429;-83
2021/09/22 11:10:54;;;;;;;10.78;7.03;;;;;;;18.09;75.39;101443.79;19920026;86;181652;-83
2021/09/22 11:40:55;;;;;;;10.80;7.03;;;;;;;18.32;71.38;101428.17;19963320;84;122045;-83
2021/09/22 12:10:56;;;;;;;8.23;4.85;;;;;;;18.34;67.45;101424.98;20296384;85;99591;-84
2021/09/22 12:40:58;;;;;;;8.73;4.08;;;;;;;18.54;66.59;101396.81;20268032;85;99635;-83
2021/09/22 13:11:09;;;;;;;9.53;4.20;;;;;;;18.23;63.30;101368.48;19966647;86;128030;-84
2021/09/22 13:41:12;;;;;;;8.73;4.87;;;;;;;18.28;64.49;101375.02;20005370;84;99359;-84
2021/09/22 14:11:20;;;;;;;8.80;5.13;;;;;;;18.07;65.25;101362.58;20233012;84;99664;-85
2021/09/22 14:41:22;;;;;;;9.83;4.12;;;;;;;17.62;66.04;101353.23;20221665;84;153421;-84
2021/09/22 15:11:23;;;;;;;8.33;4.13;;;;;;;16.98;67.37;101332.23;20168657;85;1214217;-84
2021/09/22 15:41:26;;;;;;;11.55;5.25;;;;;;;16.60;69.50;101320.52;20196842;85;129698;-84
2021/09/22 16:11:27;;;;;;;11.83;7.43;;;;;;;15.97;72.30;101312.01;20269104;84;103568;-84
2021/09/22 16:41:29;;;;;;;13.32;7.37;;;;;;;15.37;74.77;101299.85;20256854;84;99536;-84
2021/09/22 17:11:29;;;;;;;;;;;;;;;14.78;76.22;101293.28;19894183;86;100396;-85
2021/09/22 17:41:30;;;;;;;18.13;11.20;;;;;;;14.26;78.27;101265.13;19961729;85;86513;-85
2021/09/22 18:11:32;;;;;;;48.73;26.60;;;;;;;13.73;79.17;101268.70;20325904;84;99660;-83
2021/09/22 18:41:32;;;;;;;26.93;17.15;;;;;;;13.35;80.60;101255.80;20270046;85;99604;-85
2021/09/22 19:11:33;;;;;;;14.70;8.75;;;;;;;13.11;82.14;101247.37;19971379;86;99662;-85
2021/09/22 19:41:38;;;;;;;12.05;7.15;;;;;;;13.06;83.41;101217.87;19975004;86;99604;-84
2021/09/22 20:11:40;;;;;;;14.57;8.80;;;;;;;13.02;84.59;101207.38;20045306;85;99682;-83
2021/09/22 20:41:42;;;;;;;15.07;8.83;;;;;;;13.01;85.03;101187.22;20048596;85;99766;-84
2021/09/22 21:11:43;;;;;;;14.73;9.03;;;;;;;13.00;85.45;101191.73;19892786;86;99552;-84
2021/09/22 21:41:44;;;;;;;16.32;9.95;;;;;;;12.91;86.67;101176.79;19866116;86;99697;-83
2021/09/22 22:11:45;;;;;;;17.42;9.90;;;;;;;12.89;88.26;101168.66;20053477;85;99800;-82
2021/09/22 22:41:47;;;;;;;19.30;10.08;;;;;;;12.84;89.65;101142.17;20057709;85;99875;-83
2021/09/22 23:11:48;;;;;;;21.70;12.83;;;;;;;12.79;89.82;101091.39;20049175;85;99833;-83
2021/09/22 23:41:49;;;;;;;;;;;;;;;12.67;90.37;101073.68;20055819;85;99933;-83
